Terminal Aerodrome Forecast
Issued by NWS

Home | Current Version | Previous Version | Graphics & Text | Print | Product List | Glossary On
Versions: 1 2 3 4 5 6 7 8 9 10 11 12 13 14 15 16 17 18
480
FTUS41 KCLE 030910 AAA
TAFFDY
TAF AMD
KFDY 030910Z 0309/0406 VRB03KT P6SM OVC060
     FM031600 32005KT P6SM OVC060
     FM032200 28005KT P6SM OVC060
     FM040000 21004KT P6SM BKN250=

USA.gov is the U.S. government's official web portal to all federal, state and local government web resources and services.